createdAt,value
2019-01-08T00:00:29.442Z,7.90
2019-01-08T00:01:29.415Z,7.80
2019-01-08T00:02:29.283Z,8.20
2019-01-08T00:03:29.211Z,8.70
2019-01-08T00:04:29.130Z,8.10
2019-01-08T00:05:29.062Z,9.60
2019-01-08T00:06:28.989Z,8.20
2019-01-08T00:07:28.902Z,8.20
2019-01-08T00:08:28.903Z,8.40
2019-01-08T00:09:28.767Z,8.90
2019-01-08T00:10:28.668Z,8.40
2019-01-08T00:11:28.615Z,8.40
2019-01-08T00:12:28.522Z,8.70
2019-01-08T00:13:28.451Z,8.00
2019-01-08T00:14:28.375Z,8.60
2019-01-08T00:15:28.301Z,8.40
2019-01-08T00:16:28.215Z,8.40
2019-01-08T00:17:28.146Z,8.10
2019-01-08T00:18:28.067Z,7.90
2019-01-08T00:19:27.993Z,8.10
2019-01-08T00:20:27.916Z,8.50
2019-01-08T00:21:27.831Z,9.00
2019-01-08T00:22:27.757Z,8.10
2019-01-08T00:23:27.690Z,7.90
2019-01-08T00:24:27.608Z,8.50
2019-01-08T00:25:27.536Z,8.40
2019-01-08T00:26:27.470Z,8.00
2019-01-08T00:27:27.377Z,8.30
2019-01-08T00:28:27.303Z,8.40
2019-01-08T00:29:27.243Z,8.20
2019-01-08T00:30:27.155Z,7.90
2019-01-08T00:31:27.075Z,8.30
2019-01-08T00:32:27.005Z,7.90
2019-01-08T00:33:26.925Z,7.90
2019-01-08T00:34:26.855Z,8.10
2019-01-08T00:35:26.776Z,8.70
2019-01-08T00:36:26.696Z,8.40
2019-01-08T00:37:27.575Z,9.50
2019-01-08T00:38:26.553Z,8.40
2019-01-08T00:39:26.468Z,8.50
2019-01-08T00:40:26.393Z,8.30
2019-01-08T00:41:26.311Z,8.30
2019-01-08T00:42:26.263Z,8.60
2019-01-08T00:43:26.161Z,8.50
2019-01-08T00:44:26.081Z,7.80
2019-01-08T00:45:26.000Z,8.20
2019-01-08T00:46:25.942Z,8.60
2019-01-08T00:47:25.859Z,8.80
2019-01-08T00:48:25.781Z,8.80
2019-01-08T00:49:25.711Z,8.70
2019-01-08T00:50:25.630Z,8.90
2019-01-08T00:51:25.548Z,8.60
2019-01-08T00:52:25.472Z,9.20
2019-01-08T00:53:25.415Z,7.80
2019-01-08T00:54:25.325Z,9.00
2019-01-08T00:55:25.254Z,8.80
2019-01-08T00:56:25.162Z,8.30
2019-01-08T00:57:25.096Z,8.90
2019-01-08T00:58:25.023Z,8.50
2019-01-08T00:59:24.947Z,8.20
2019-01-08T01:00:24.866Z,8.20
2019-01-08T01:01:24.780Z,8.70
2019-01-08T01:02:24.706Z,7.90
2019-01-08T01:03:24.637Z,8.40
2019-01-08T01:04:24.570Z,8.40
2019-01-08T01:05:24.491Z,8.20
2019-01-08T01:06:24.402Z,8.10
2019-01-08T01:07:24.339Z,8.90
2019-01-08T01:08:24.252Z,8.20
2019-01-08T01:09:24.178Z,8.40
2019-01-08T01:10:24.104Z,8.30
2019-01-08T01:11:24.031Z,8.10
2019-01-08T01:12:23.953Z,8.60
2019-01-08T01:13:23.882Z,8.60
2019-01-08T01:14:23.805Z,8.60
2019-01-08T01:15:23.721Z,8.30
2019-01-08T01:16:23.662Z,9.00
2019-01-08T01:17:23.569Z,9.00
2019-01-08T01:18:23.494Z,7.80
2019-01-08T01:19:23.421Z,8.50
2019-01-08T01:20:23.355Z,8.80
2019-01-08T01:21:23.268Z,8.30
2019-01-08T01:22:23.196Z,8.30
2019-01-08T01:23:23.113Z,8.00
2019-01-08T01:24:23.040Z,8.00
2019-01-08T01:25:22.974Z,9.40
2019-01-08T01:26:22.877Z,8.50
2019-01-08T01:27:22.811Z,9.20
2019-01-08T01:28:22.741Z,8.50
2019-01-08T01:29:22.667Z,8.70
2019-01-08T01:30:22.582Z,8.30
2019-01-08T01:31:22.510Z,8.00
2019-01-08T01:32:22.436Z,8.00
2019-01-08T01:33:22.357Z,8.20
2019-01-08T01:34:22.277Z,8.00
2019-01-08T01:35:22.207Z,7.50
2019-01-08T01:36:22.127Z,8.20
2019-01-08T01:37:22.052Z,8.20
2019-01-08T01:38:21.977Z,7.50
2019-01-08T01:39:21.897Z,7.60
2019-01-08T01:40:21.841Z,8.40
2019-01-08T01:41:21.748Z,7.80
2019-01-08T01:42:21.687Z,8.00
2019-01-08T01:43:21.599Z,8.20
2019-01-08T01:44:21.527Z,8.40
2019-01-08T01:45:21.443Z,8.60
2019-01-08T01:46:21.377Z,8.40
2019-01-08T01:47:21.291Z,8.10
2019-01-08T01:48:21.219Z,8.40
2019-01-08T01:49:21.142Z,7.60
2019-01-08T01:50:21.063Z,8.00
2019-01-08T01:51:20.999Z,7.60
2019-01-08T01:52:20.912Z,7.80
2019-01-08T01:53:20.839Z,7.60
2019-01-08T01:54:20.768Z,7.70
2019-01-08T01:55:20.695Z,7.80
2019-01-08T01:56:20.613Z,7.60
2019-01-08T01:57:20.542Z,8.10
2019-01-08T01:58:20.467Z,8.40
2019-01-08T01:59:20.386Z,8.10
2019-01-08T02:00:20.308Z,8.20
2019-01-08T02:01:20.237Z,8.20
2019-01-08T02:02:20.166Z,7.60
2019-01-08T02:03:20.083Z,7.90
2019-01-08T02:04:20.003Z,7.60
2019-01-08T02:05:19.927Z,7.80
2019-01-08T02:06:19.856Z,8.70
2019-01-08T02:07:19.775Z,8.20
2019-01-08T02:08:19.701Z,8.10
2019-01-08T02:09:19.631Z,7.50
2019-01-08T02:10:19.562Z,8.50
2019-01-08T02:11:19.565Z,7.90
2019-01-08T02:12:19.403Z,8.10
2019-01-08T02:13:19.327Z,8.00
2019-01-08T02:14:19.249Z,7.70
2019-01-08T02:15:19.173Z,7.70
2019-01-08T02:16:19.100Z,8.00
2019-01-08T02:17:19.025Z,9.10
2019-01-08T02:18:18.947Z,8.10
2019-01-08T02:19:18.907Z,7.70
2019-01-08T02:20:18.797Z,8.00
2019-01-08T02:21:18.723Z,7.80
2019-01-08T02:22:18.646Z,7.70
2019-01-08T02:23:18.566Z,7.40
2019-01-08T02:24:18.495Z,7.50
2019-01-08T02:25:18.431Z,7.90
2019-01-08T02:26:18.343Z,8.00
2019-01-08T02:27:18.271Z,8.00
2019-01-08T02:28:18.197Z,7.70
2019-01-08T02:29:18.111Z,7.80
2019-01-08T02:30:18.040Z,7.80
2019-01-08T02:31:17.958Z,8.10
2019-01-08T02:32:17.893Z,8.10
2019-01-08T02:33:17.805Z,7.70
2019-01-08T02:34:17.721Z,7.50
2019-01-08T02:35:17.655Z,7.80
2019-01-08T02:36:17.577Z,7.40
2019-01-08T02:37:17.504Z,7.70
2019-01-08T02:38:17.426Z,8.30
2019-01-08T02:39:17.362Z,7.80
2019-01-08T02:40:17.279Z,7.70
2019-01-08T02:41:17.261Z,7.40
2019-01-08T02:42:17.133Z,7.60
2019-01-08T02:43:17.048Z,7.30
2019-01-08T02:44:17.080Z,8.40
2019-01-08T02:45:16.901Z,7.30
2019-01-08T02:46:16.904Z,8.20
2019-01-08T02:47:16.751Z,7.40
2019-01-08T02:48:16.671Z,7.60
2019-01-08T02:49:16.595Z,7.60
2019-01-08T02:50:16.520Z,7.60
2019-01-08T02:51:16.440Z,7.80
2019-01-08T02:52:16.383Z,7.50
2019-01-08T02:53:16.288Z,7.60
2019-01-08T02:54:16.225Z,7.50
2019-01-08T02:55:16.137Z,7.40
2019-01-08T02:56:16.074Z,7.90
2019-01-08T02:57:15.982Z,7.70
2019-01-08T02:58:15.909Z,7.70
2019-01-08T02:59:15.835Z,7.40
2019-01-08T03:00:15.752Z,8.20
2019-01-08T03:01:15.682Z,7.60
2019-01-08T03:02:15.607Z,7.60
2019-01-08T03:03:15.546Z,7.80
2019-01-08T03:04:15.453Z,8.10
2019-01-08T03:05:15.383Z,7.30
2019-01-08T03:06:15.310Z,7.50
2019-01-08T03:07:15.226Z,7.80
2019-01-08T03:08:15.158Z,7.50
2019-01-08T03:09:15.090Z,8.00
2019-01-08T03:10:15.003Z,7.60
2019-01-08T03:11:14.925Z,8.00
2019-01-08T03:12:14.849Z,7.40
2019-01-08T03:13:14.775Z,7.90
2019-01-08T03:14:14.695Z,7.50
2019-01-08T03:15:14.618Z,7.60
2019-01-08T03:16:14.552Z,8.40
2019-01-08T03:17:14.468Z,7.30
2019-01-08T03:18:14.395Z,7.90
2019-01-08T03:19:14.318Z,7.60
2019-01-08T03:20:14.242Z,7.70
2019-01-08T03:21:14.167Z,7.80
2019-01-08T03:22:14.087Z,7.00
2019-01-08T03:23:14.021Z,7.30
2019-01-08T03:24:13.932Z,8.30
2019-01-08T03:25:13.902Z,7.70
2019-01-08T03:26:13.791Z,7.70
2019-01-08T03:27:13.709Z,7.10
2019-01-08T03:28:13.664Z,7.40
2019-01-08T03:29:13.561Z,7.20
2019-01-08T03:30:13.490Z,7.00
2019-01-08T03:31:13.406Z,7.50
2019-01-08T03:32:13.328Z,7.40
2019-01-08T03:33:13.247Z,7.30
2019-01-08T03:34:13.175Z,7.20
2019-01-08T03:35:13.105Z,7.10
2019-01-08T03:36:13.021Z,7.70
2019-01-08T03:37:12.950Z,7.30
2019-01-08T03:38:12.868Z,7.50
2019-01-08T03:39:12.799Z,7.50
2019-01-08T03:40:12.720Z,7.20
2019-01-08T03:41:12.635Z,8.00
2019-01-08T03:42:12.569Z,7.30
2019-01-08T03:43:12.491Z,7.40
2019-01-08T03:44:12.416Z,7.50
2019-01-08T03:45:12.339Z,7.40
2019-01-08T03:46:12.255Z,8.30
2019-01-08T03:47:12.187Z,7.80
2019-01-08T03:48:12.117Z,7.30
2019-01-08T03:49:12.030Z,7.70
2019-01-08T03:50:12.018Z,7.50
2019-01-08T03:51:11.881Z,7.30
2019-01-08T03:52:11.806Z,7.50
2019-01-08T03:53:11.730Z,7.10
2019-01-08T03:54:11.652Z,7.60
2019-01-08T03:55:11.569Z,7.20
2019-01-08T03:56:11.501Z,7.20
2019-01-08T03:57:11.423Z,7.50
2019-01-08T03:58:11.352Z,7.60
2019-01-08T03:59:11.259Z,7.80
2019-01-08T04:00:11.202Z,7.20
2019-01-08T04:01:11.117Z,7.80
2019-01-08T04:02:11.047Z,7.70
2019-01-08T04:03:10.968Z,7.30
2019-01-08T04:04:10.899Z,7.50
2019-01-08T04:05:10.824Z,7.70
2019-01-08T04:06:10.731Z,8.40
2019-01-08T04:07:10.659Z,7.40
2019-01-08T04:08:10.584Z,6.90
2019-01-08T04:09:10.508Z,7.40
2019-01-08T04:10:10.427Z,7.30
2019-01-08T04:11:10.347Z,6.90
2019-01-08T04:12:10.288Z,7.50
2019-01-08T04:13:10.207Z,7.40
2019-01-08T04:14:10.133Z,7.50
2019-01-08T04:15:10.054Z,6.80
2019-01-08T04:16:09.981Z,6.80
2019-01-08T04:17:09.901Z,7.10
2019-01-08T04:18:09.824Z,7.00
2019-01-08T04:19:09.750Z,7.10
2019-01-08T04:20:09.669Z,7.10
2019-01-08T04:21:09.581Z,6.40
2019-01-08T04:22:09.515Z,7.00
2019-01-08T04:23:09.438Z,6.70
2019-01-08T04:24:09.363Z,7.10
2019-01-08T04:25:09.288Z,7.20
2019-01-08T04:26:09.212Z,7.10
2019-01-08T04:27:09.137Z,7.10
2019-01-08T04:28:09.056Z,7.10
2019-01-08T04:29:08.978Z,7.00
2019-01-08T04:30:08.907Z,7.70
2019-01-08T04:31:08.899Z,7.30
2019-01-08T04:32:08.753Z,7.10
2019-01-08T04:33:08.688Z,7.40
2019-01-08T04:34:08.601Z,7.40
2019-01-08T04:35:08.525Z,6.80
2019-01-08T04:36:08.450Z,7.00
2019-01-08T04:37:08.373Z,7.10
2019-01-08T04:38:08.298Z,7.00
2019-01-08T04:39:08.219Z,6.90
2019-01-08T04:40:08.145Z,7.20
2019-01-08T04:41:08.069Z,7.10
2019-01-08T04:42:07.993Z,7.00
2019-01-08T04:43:07.915Z,7.30
2019-01-08T04:44:07.842Z,7.10
2019-01-08T04:45:07.759Z,7.10
2019-01-08T04:46:07.677Z,6.90
2019-01-08T04:47:07.614Z,7.10
2019-01-08T04:48:07.535Z,7.20
2019-01-08T04:49:07.459Z,6.90
2019-01-08T04:50:07.379Z,7.60
2019-01-08T04:51:07.312Z,7.80
2019-01-08T04:52:07.240Z,6.60
2019-01-08T04:53:07.152Z,7.30
2019-01-08T04:54:07.079Z,7.40
2019-01-08T04:55:07.001Z,7.00
2019-01-08T04:56:06.951Z,7.50
2019-01-08T04:57:06.839Z,7.10
2019-01-08T04:58:06.778Z,7.10
2019-01-08T04:59:06.739Z,7.00
2019-01-08T05:00:06.623Z,7.10
2019-01-08T05:01:06.546Z,7.20
2019-01-08T05:02:06.496Z,6.90
2019-01-08T05:03:06.391Z,7.20
2019-01-08T05:04:06.309Z,7.10
2019-01-08T05:05:06.242Z,6.80
2019-01-08T05:06:06.172Z,7.60
2019-01-08T05:07:06.091Z,7.40
2019-01-08T05:08:06.008Z,7.40
2019-01-08T05:09:05.947Z,6.90
2019-01-08T05:10:05.866Z,7.40
2019-01-08T05:11:05.781Z,7.30
2019-01-08T05:12:05.710Z,6.80
2019-01-08T05:13:05.630Z,7.00
2019-01-08T05:14:05.553Z,6.90
2019-01-08T05:15:05.481Z,7.20
2019-01-08T05:16:05.406Z,7.80
2019-01-08T05:17:05.326Z,7.40
2019-01-08T05:18:05.259Z,7.40
2019-01-08T05:19:05.165Z,7.10
2019-01-08T05:20:05.100Z,7.20
2019-01-08T05:21:05.051Z,7.50
2019-01-08T05:22:04.941Z,7.30
2019-01-08T05:23:04.868Z,7.60
2019-01-08T05:24:04.790Z,7.40
2019-01-08T05:25:04.720Z,7.50
2019-01-08T05:26:04.645Z,7.50
2019-01-08T05:27:04.565Z,7.00
2019-01-08T05:28:04.491Z,7.40
2019-01-08T05:29:04.407Z,7.70
2019-01-08T05:30:08.126Z,7.50
2019-01-08T05:31:04.256Z,7.50
2019-01-08T05:32:04.182Z,7.30
2019-01-08T05:33:04.110Z,7.70
2019-01-08T05:34:04.060Z,7.60
2019-01-08T05:35:03.956Z,7.90
2019-01-08T05:36:03.872Z,7.40
2019-01-08T05:37:03.801Z,7.60
2019-01-08T05:38:03.729Z,7.70
2019-01-08T05:39:03.645Z,7.30
2019-01-08T05:40:03.563Z,7.30
2019-01-08T05:41:03.490Z,7.50
2019-01-08T05:42:03.411Z,7.70
2019-01-08T05:43:03.368Z,7.50
2019-01-08T05:44:03.282Z,7.50
2019-01-08T05:45:03.182Z,7.50
2019-01-08T05:46:03.112Z,7.00
2019-01-08T05:47:03.040Z,7.30
2019-01-08T05:48:02.948Z,7.10
2019-01-08T05:49:02.895Z,7.10
2019-01-08T05:50:02.804Z,7.20
2019-01-08T05:51:02.730Z,7.10
2019-01-08T05:52:02.656Z,7.20
2019-01-08T05:53:02.573Z,7.60
2019-01-08T05:54:02.501Z,7.30
2019-01-08T05:55:02.426Z,7.10
2019-01-08T05:56:02.397Z,7.40
2019-01-08T05:57:02.276Z,7.40
2019-01-08T05:58:02.184Z,7.20
2019-01-08T05:59:02.107Z,7.50
2019-01-08T06:00:02.031Z,7.00
2019-01-08T06:01:01.960Z,7.60
2019-01-08T06:02:01.890Z,7.40
2019-01-08T06:03:01.816Z,7.80
2019-01-08T06:04:01.731Z,7.10
2019-01-08T06:05:01.663Z,7.70
2019-01-08T06:06:01.578Z,7.00
2019-01-08T06:07:01.512Z,7.40
2019-01-08T06:08:01.430Z,7.30
2019-01-08T06:09:01.362Z,7.40
2019-01-08T06:10:01.281Z,7.10
2019-01-08T06:11:01.187Z,7.00
2019-01-08T06:12:01.179Z,7.20
2019-01-08T06:13:01.058Z,7.50
2019-01-08T06:14:00.969Z,7.70
2019-01-08T06:15:00.889Z,7.30
2019-01-08T06:16:00.818Z,6.90
2019-01-08T06:17:00.739Z,7.20
2019-01-08T06:18:00.666Z,6.90
2019-01-08T06:19:00.590Z,7.00
2019-01-08T06:20:00.509Z,7.50
2019-01-08T06:21:00.427Z,7.20
2019-01-08T06:22:00.361Z,7.30
2019-01-08T06:23:00.308Z,7.30
2019-01-08T06:24:00.210Z,6.70
2019-01-08T06:25:00.624Z,7.40
2019-01-08T06:26:00.057Z,7.30
2019-01-08T06:26:59.967Z,7.10
2019-01-08T06:27:59.906Z,7.10
2019-01-08T06:28:59.825Z,7.50
2019-01-08T06:29:59.763Z,7.10
2019-01-08T06:30:59.751Z,7.20
2019-01-08T06:31:59.587Z,6.90
2019-01-08T06:32:59.547Z,7.40
2019-01-08T06:33:59.444Z,7.10
2019-01-08T06:34:59.372Z,7.30
2019-01-08T06:35:59.290Z,6.80
2019-01-08T06:36:59.215Z,7.10
2019-01-08T06:37:59.135Z,7.40
2019-01-08T06:38:59.057Z,7.10
2019-01-08T06:39:58.986Z,7.30
2019-01-08T06:40:58.911Z,7.20
2019-01-08T06:41:58.836Z,7.00
2019-01-08T06:42:58.758Z,6.90
2019-01-08T06:43:58.690Z,6.70
2019-01-08T06:44:58.615Z,6.80
2019-01-08T06:45:58.524Z,7.10
2019-01-08T06:46:58.458Z,6.40
2019-01-08T06:47:58.379Z,7.40
2019-01-08T06:48:58.298Z,7.00
2019-01-08T06:49:58.230Z,7.20
2019-01-08T06:50:58.146Z,7.10
2019-01-08T06:51:58.146Z,7.20
2019-01-08T06:52:58.009Z,7.20
2019-01-08T06:53:57.914Z,6.80
2019-01-08T06:54:57.849Z,7.00
2019-01-08T06:55:57.756Z,6.60
2019-01-08T06:56:57.686Z,6.90
2019-01-08T06:57:57.638Z,7.00
2019-01-08T06:58:57.538Z,6.80
2019-01-08T06:59:57.463Z,6.80
2019-01-08T07:00:57.383Z,6.90
2019-01-08T07:01:57.304Z,6.70
2019-01-08T07:02:57.231Z,6.80
2019-01-08T07:03:57.164Z,7.00
2019-01-08T07:04:57.073Z,6.50
2019-01-08T07:05:57.012Z,6.50
2019-01-08T07:06:56.933Z,6.40
2019-01-08T07:07:56.858Z,6.50
2019-01-08T07:08:56.853Z,6.40
2019-01-08T07:09:56.688Z,6.70
2019-01-08T07:10:56.618Z,6.30
2019-01-08T07:11:56.544Z,6.60
2019-01-08T07:12:56.466Z,6.10
2019-01-08T07:13:56.406Z,6.40
2019-01-08T07:14:56.320Z,6.50
2019-01-08T07:15:56.231Z,6.80
2019-01-08T07:16:56.166Z,7.00
2019-01-08T07:17:56.086Z,6.00
2019-01-08T07:18:56.094Z,6.10
2019-01-08T07:19:55.930Z,6.40
2019-01-08T07:20:55.851Z,6.20
2019-01-08T07:21:55.786Z,6.70
2019-01-08T07:22:55.695Z,5.80
2019-01-08T07:23:55.627Z,6.30
2019-01-08T07:24:55.546Z,6.40
2019-01-08T07:25:55.474Z,6.30
2019-01-08T07:26:55.399Z,6.30
2019-01-08T07:27:55.323Z,6.40
2019-01-08T07:28:55.248Z,6.30
2019-01-08T07:29:55.168Z,6.30
2019-01-08T07:30:55.166Z,6.50
2019-01-08T07:31:55.017Z,6.20
2019-01-08T07:32:54.948Z,6.30
2019-01-08T07:33:54.863Z,6.30
2019-01-08T07:34:54.796Z,6.50
2019-01-08T07:35:54.711Z,5.80
2019-01-08T07:36:54.638Z,6.10
2019-01-08T07:37:54.562Z,6.20
2019-01-08T07:38:54.488Z,6.40
2019-01-08T07:39:54.418Z,6.50
2019-01-08T07:40:54.323Z,6.80
2019-01-08T07:41:54.256Z,5.80
2019-01-08T07:42:54.177Z,6.40
2019-01-08T07:43:54.141Z,6.10
2019-01-08T07:44:54.021Z,6.10
2019-01-08T07:45:53.952Z,5.90
2019-01-08T07:46:53.876Z,6.00
2019-01-08T07:47:53.797Z,6.90
2019-01-08T07:48:53.714Z,6.20
2019-01-08T07:49:53.644Z,6.30
2019-01-08T07:50:53.566Z,7.30
2019-01-08T07:51:53.494Z,6.10
2019-01-08T07:52:53.414Z,6.00
2019-01-08T07:53:53.347Z,6.50
2019-01-08T07:54:53.264Z,6.10
2019-01-08T07:55:53.184Z,5.50
2019-01-08T07:56:53.113Z,6.30
2019-01-08T07:57:53.022Z,5.80
2019-01-08T07:58:52.953Z,6.10
2019-01-08T07:59:52.882Z,5.60
2019-01-08T08:00:52.805Z,5.90
2019-01-08T08:01:52.732Z,5.60
2019-01-08T08:02:52.648Z,5.40
2019-01-08T08:03:52.574Z,6.00
2019-01-08T08:04:52.500Z,5.70
2019-01-08T08:05:52.422Z,5.90
2019-01-08T08:06:52.351Z,5.90
2019-01-08T08:07:52.276Z,5.60
2019-01-08T08:08:52.196Z,6.00
2019-01-08T08:09:52.156Z,5.90
2019-01-08T08:10:52.052Z,5.80
2019-01-08T08:11:51.966Z,5.80
2019-01-08T08:12:51.895Z,5.90
2019-01-08T08:13:51.822Z,7.00
2019-01-08T08:14:51.740Z,6.60
2019-01-08T08:15:51.661Z,6.60
2019-01-08T08:16:51.588Z,6.60
2019-01-08T08:17:51.514Z,7.70
2019-01-08T08:18:51.456Z,7.00
2019-01-08T08:19:51.365Z,6.50
2019-01-08T08:20:51.288Z,6.10
2019-01-08T08:21:51.208Z,7.40
2019-01-08T08:22:51.132Z,6.10
2019-01-08T08:23:51.064Z,7.60
2019-01-08T08:24:50.983Z,7.40
2019-01-08T08:25:50.909Z,6.70
2019-01-08T08:26:50.830Z,6.40
2019-01-08T08:27:50.757Z,5.90
2019-01-08T08:28:50.688Z,5.50
2019-01-08T08:29:50.607Z,6.00
2019-01-08T08:30:58.364Z,7.20
2019-01-08T08:31:50.454Z,6.80
2019-01-08T08:32:50.386Z,6.20
2019-01-08T08:33:50.316Z,6.50
2019-01-08T08:34:50.230Z,6.40
2019-01-08T08:35:50.154Z,6.40
2019-01-08T08:36:50.079Z,6.80
2019-01-08T08:37:50.018Z,6.90
2019-01-08T08:38:49.923Z,6.60
2019-01-08T08:39:49.841Z,6.20
2019-01-08T08:40:49.786Z,5.90
2019-01-08T08:41:49.696Z,6.70
2019-01-08T08:42:49.627Z,7.60
2019-01-08T08:43:49.552Z,6.60
2019-01-08T08:44:49.480Z,6.20
2019-01-08T08:45:49.394Z,7.40
2019-01-08T08:46:49.327Z,6.20
2019-01-08T08:47:49.250Z,6.10
2019-01-08T08:48:49.172Z,6.50
2019-01-08T08:49:49.102Z,6.00
2019-01-08T08:50:49.031Z,5.80
2019-01-08T08:51:48.946Z,6.10
2019-01-08T08:52:48.874Z,6.80
2019-01-08T08:53:52.714Z,6.10
2019-01-08T08:54:48.766Z,6.00
2019-01-08T08:55:48.638Z,5.70
2019-01-08T08:56:48.568Z,6.30
2019-01-08T08:57:48.506Z,6.20
2019-01-08T08:58:48.485Z,5.80
2019-01-08T08:59:48.353Z,5.80
2019-01-08T09:00:48.281Z,7.20
2019-01-08T09:01:48.212Z,5.90
2019-01-08T09:02:48.127Z,5.50
2019-01-08T09:03:48.054Z,5.50
2019-01-08T09:04:47.976Z,6.10
2019-01-08T09:05:47.905Z,7.00
2019-01-08T09:06:47.826Z,5.40
2019-01-08T09:07:47.765Z,5.20
2019-01-08T09:08:47.686Z,5.80
2019-01-08T09:09:47.608Z,5.70
2019-01-08T09:10:47.527Z,5.80
2019-01-08T09:11:47.463Z,5.70
2019-01-08T09:12:47.385Z,5.60
2019-01-08T09:13:47.314Z,5.10
2019-01-08T09:14:47.240Z,4.90
2019-01-08T09:15:47.159Z,6.20
2019-01-08T09:16:47.086Z,5.60
2019-01-08T09:17:47.012Z,6.20
2019-01-08T09:18:46.938Z,6.60
2019-01-08T09:19:46.875Z,5.70
2019-01-08T09:20:46.783Z,6.10
2019-01-08T09:21:46.712Z,5.30
2019-01-08T09:22:46.640Z,6.40
2019-01-08T09:23:46.569Z,5.10
2019-01-08T09:24:46.490Z,5.00
2019-01-08T09:25:46.420Z,6.10
2019-01-08T09:26:46.350Z,5.00
2019-01-08T09:27:46.273Z,5.20
2019-01-08T09:28:46.212Z,6.80
2019-01-08T09:29:46.125Z,7.30
2019-01-08T09:30:46.051Z,6.70
2019-01-08T09:31:45.978Z,6.80
2019-01-08T09:32:45.904Z,6.00
2019-01-08T09:33:45.851Z,8.30
2019-01-08T09:34:45.760Z,6.10
2019-01-08T09:35:45.680Z,6.90
2019-01-08T09:36:45.616Z,6.30
2019-01-08T09:37:45.536Z,5.90
2019-01-08T09:38:45.466Z,6.20
2019-01-08T09:39:45.388Z,6.00
2019-01-08T09:40:45.331Z,5.50
2019-01-08T09:41:45.241Z,5.50
2019-01-08T09:42:45.167Z,6.40
2019-01-08T09:43:45.089Z,7.70
2019-01-08T09:44:45.019Z,6.70
2019-01-08T09:45:44.942Z,8.70
2019-01-08T09:46:44.874Z,7.30
2019-01-08T09:47:44.798Z,6.70
2019-01-08T09:48:44.726Z,7.80
2019-01-08T09:49:44.650Z,7.50
2019-01-08T09:50:44.576Z,6.20
2019-01-08T09:51:44.505Z,5.90
2019-01-08T09:52:44.434Z,7.90
2019-01-08T09:53:44.406Z,6.90
2019-01-08T09:54:44.285Z,6.50
2019-01-08T09:55:44.201Z,7.10
2019-01-08T09:56:44.150Z,7.70
2019-01-08T09:57:44.073Z,7.00
2019-01-08T09:58:43.998Z,7.10
2019-01-08T09:59:43.924Z,8.60
2019-01-08T10:00:43.844Z,7.80
2019-01-08T10:01:43.772Z,6.80
2019-01-08T10:02:43.702Z,7.00
2019-01-08T10:03:43.620Z,7.40
2019-01-08T10:04:43.541Z,6.50
2019-01-08T10:05:43.478Z,7.70
2019-01-08T10:06:43.409Z,7.70
2019-01-08T10:07:43.321Z,6.50
2019-01-08T10:08:43.249Z,6.40
2019-01-08T10:09:43.182Z,7.30
2019-01-08T10:10:43.108Z,7.30
2019-01-08T10:11:43.035Z,6.30
2019-01-08T10:12:42.957Z,5.70
2019-01-08T10:13:42.921Z,5.70
2019-01-08T10:14:42.810Z,5.90
2019-01-08T10:15:42.744Z,6.80
2019-01-08T10:16:42.661Z,6.10
2019-01-08T10:17:42.600Z,6.40
2019-01-08T10:18:42.797Z,15.50
2019-01-08T10:19:42.451Z,11.80
2019-01-08T10:20:42.381Z,9.20
2019-01-08T10:21:42.291Z,8.70
2019-01-08T10:22:42.224Z,11.50
2019-01-08T10:23:42.152Z,10.00
2019-01-08T10:24:42.079Z,10.70
2019-01-08T10:25:42.014Z,17.50
2019-01-08T10:26:41.940Z,13.50
2019-01-08T10:27:41.862Z,10.70
2019-01-08T10:28:41.786Z,7.30
2019-01-08T10:29:41.714Z,8.00
2019-01-08T10:30:41.635Z,7.90
2019-01-08T10:31:41.561Z,9.30
2019-01-08T10:32:41.482Z,6.80
2019-01-08T10:33:41.418Z,7.10
2019-01-08T10:34:41.347Z,6.30
2019-01-08T10:35:41.266Z,6.30
2019-01-08T10:36:41.192Z,7.00
2019-01-08T10:37:41.116Z,6.00
2019-01-08T10:38:41.044Z,6.90
2019-01-08T10:39:40.967Z,6.40
2019-01-08T10:40:40.897Z,7.20
2019-01-08T10:41:40.824Z,5.90
2019-01-08T10:42:40.751Z,7.10
2019-01-08T10:43:40.672Z,7.70
2019-01-08T10:44:40.604Z,6.10
2019-01-08T10:45:40.526Z,5.50
2019-01-08T10:46:40.466Z,6.60
2019-01-08T10:47:40.385Z,7.50
2019-01-08T10:48:40.309Z,7.00
2019-01-08T10:49:40.238Z,7.20
2019-01-08T10:50:40.160Z,6.50
2019-01-08T10:51:40.102Z,6.10
2019-01-08T10:52:40.014Z,6.50
2019-01-08T10:53:39.938Z,6.40
2019-01-08T10:54:39.870Z,7.10
2019-01-08T10:55:39.799Z,9.10
2019-01-08T10:56:39.716Z,9.00
2019-01-08T10:57:39.640Z,6.70
2019-01-08T10:58:39.582Z,7.00
2019-01-08T10:59:39.529Z,8.20
2019-01-08T11:00:39.424Z,7.40
2019-01-08T11:01:40.621Z,7.60
2019-01-08T11:02:39.281Z,7.40
2019-01-08T11:03:39.214Z,7.30
2019-01-08T11:04:39.135Z,5.60
2019-01-08T11:05:39.060Z,6.60
2019-01-08T11:06:38.984Z,7.00
2019-01-08T11:07:38.910Z,8.70
2019-01-08T11:08:38.839Z,5.80
2019-01-08T11:09:38.765Z,6.00
2019-01-08T11:10:38.688Z,5.60
2019-01-08T11:11:38.618Z,7.50
2019-01-08T11:12:38.556Z,6.40
2019-01-08T11:13:38.470Z,6.90
2019-01-08T11:14:38.401Z,7.70
2019-01-08T11:15:38.321Z,6.10
2019-01-08T11:16:38.252Z,5.70
2019-01-08T11:17:38.181Z,6.10
2019-01-08T11:18:38.100Z,5.60
2019-01-08T11:19:38.032Z,7.10
2019-01-08T11:20:37.960Z,6.40
2019-01-08T11:21:37.886Z,6.50
2019-01-08T11:22:37.815Z,6.00
2019-01-08T11:23:37.749Z,7.60
2019-01-08T11:24:37.660Z,5.90
2019-01-08T11:25:37.593Z,8.70
2019-01-08T11:26:37.525Z,8.60
2019-01-08T11:27:37.446Z,6.40
2019-01-08T11:28:37.364Z,5.40
2019-01-08T11:29:37.297Z,5.50
2019-01-08T11:30:37.234Z,5.80
2019-01-08T11:31:37.162Z,5.90
2019-01-08T11:32:37.076Z,6.40
2019-01-08T11:33:37.014Z,6.80
2019-01-08T11:34:36.922Z,6.60
2019-01-08T11:35:42.188Z,5.60
2019-01-08T11:36:36.784Z,6.30
2019-01-08T11:37:36.714Z,6.00
2019-01-08T11:38:36.636Z,5.40
2019-01-08T11:39:36.560Z,6.20
2019-01-08T11:40:36.486Z,5.70
2019-01-08T11:41:36.424Z,5.40
2019-01-08T11:42:36.352Z,5.20
2019-01-08T11:43:36.274Z,6.40
2019-01-08T11:44:36.199Z,5.90
2019-01-08T11:45:36.125Z,5.90
2019-01-08T11:46:36.056Z,5.90
2019-01-08T11:47:35.984Z,7.10
2019-01-08T11:48:35.930Z,5.80
2019-01-08T11:49:35.873Z,5.40
2019-01-08T11:50:35.763Z,7.20
2019-01-08T11:51:35.719Z,5.50
2019-01-08T11:52:35.625Z,5.70
2019-01-08T11:53:36.722Z,6.70
2019-01-08T11:54:40.814Z,7.00
2019-01-08T11:55:35.396Z,5.50
2019-01-08T11:56:35.327Z,6.40
2019-01-08T11:57:35.259Z,5.70
2019-01-08T11:58:35.166Z,6.70
2019-01-08T11:59:35.118Z,5.50
2019-01-08T12:00:35.029Z,7.10
2019-01-08T12:01:34.961Z,7.50
2019-01-08T12:02:34.886Z,6.20
2019-01-08T12:03:34.809Z,6.00
2019-01-08T12:04:34.761Z,7.20
2019-01-08T12:05:34.664Z,6.00
2019-01-08T12:06:34.590Z,5.60
2019-01-08T12:07:34.519Z,6.50
2019-01-08T12:08:34.454Z,5.10
2019-01-08T12:09:34.374Z,6.00
2019-01-08T12:10:34.294Z,5.30
2019-01-08T12:11:34.217Z,5.70
2019-01-08T12:12:34.181Z,5.40
2019-01-08T12:13:34.079Z,5.10
2019-01-08T12:14:34.007Z,5.40
2019-01-08T12:15:33.930Z,5.60
2019-01-08T12:16:33.847Z,6.20
2019-01-08T12:17:33.778Z,5.30
2019-01-08T12:18:33.714Z,5.60
2019-01-08T12:19:33.667Z,5.80
2019-01-08T12:20:33.568Z,6.60
2019-01-08T12:21:33.492Z,7.00
2019-01-08T12:22:40.635Z,8.30
2019-01-08T12:23:33.347Z,5.20
2019-01-08T12:24:33.278Z,7.00
2019-01-08T12:25:33.186Z,5.60
2019-01-08T12:26:33.142Z,5.10
2019-01-08T12:27:33.057Z,7.40
2019-01-08T12:28:32.977Z,7.40
2019-01-08T12:29:32.905Z,6.30
2019-01-08T12:30:32.837Z,5.70
2019-01-08T12:31:32.868Z,5.90
2019-01-08T12:32:32.686Z,5.80
2019-01-08T12:33:32.608Z,5.20
2019-01-08T12:34:32.548Z,7.40
2019-01-08T12:35:32.473Z,6.10
2019-01-08T12:36:32.396Z,5.40
2019-01-08T12:37:32.318Z,4.80
2019-01-08T12:38:32.250Z,6.70
2019-01-08T12:39:32.179Z,5.60
2019-01-08T12:40:32.104Z,5.50
2019-01-08T12:41:32.020Z,5.00
2019-01-08T12:42:31.953Z,5.40
2019-01-08T12:43:31.881Z,5.70
2019-01-08T12:44:31.804Z,5.40
2019-01-08T12:45:31.736Z,5.50
2019-01-08T12:46:31.664Z,5.20
2019-01-08T12:47:31.583Z,5.70
2019-01-08T12:48:31.515Z,5.00
2019-01-08T12:49:31.437Z,5.10
2019-01-08T12:50:31.367Z,5.60
2019-01-08T12:51:31.287Z,6.70
2019-01-08T12:52:31.218Z,4.40
2019-01-08T12:53:31.150Z,4.80
2019-01-08T12:54:31.067Z,4.90
2019-01-08T12:55:31.000Z,5.30
2019-01-08T12:56:30.922Z,6.50
2019-01-08T12:57:30.850Z,7.30
2019-01-08T12:58:30.780Z,5.30
2019-01-08T12:59:30.724Z,4.80
2019-01-08T13:00:30.630Z,6.60
2019-01-08T13:01:30.564Z,4.90
2019-01-08T13:02:30.486Z,5.70
2019-01-08T13:03:30.420Z,5.70
2019-01-08T13:04:30.343Z,5.60
2019-01-08T13:05:30.302Z,5.10
2019-01-08T13:06:30.217Z,4.50
2019-01-08T13:07:30.122Z,5.90
2019-01-08T13:08:30.050Z,5.50
2019-01-08T13:09:29.984Z,5.50
2019-01-08T13:10:29.913Z,4.90
2019-01-08T13:11:29.827Z,6.60
2019-01-08T13:12:29.763Z,5.90
2019-01-08T13:13:29.682Z,5.00
2019-01-08T13:14:29.607Z,5.20
2019-01-08T13:15:29.536Z,4.80
2019-01-08T13:16:29.463Z,4.60
2019-01-08T13:17:29.391Z,5.40